Terminal Aerodrome Forecast
Issued by NWS

Home | Current Version | Previous Version | Text Only | Print | Product List | Glossary On
Versions: 1 2 3 4 5 6 7 8 9 10 11 12 13 14
000
FTUS42 KILM 301720
TAFCRE
TAF
KCRE 301720Z 3018/3118 10006KT P6SM -SHRA BKN035
     FM302000 14005KT 5SM -SHRA BKN025
     FM310100 VRB03KT 4SM -RA BR BKN012
     FM311300 12004KT 5SM -SHRA BKN025=

USA.gov is the U.S. government's official web portal to all federal, state and local government web resources and services.